sensor_id;sensor_type;location;lat;lon;timestamp;pressure;altitude;pressure_sealevel;temperature;humidity
16738;BME280;17906;47.684;10.806;2022-10-13T00:00:46;93818.81;;;5.33;100.00
16738;BME280;17906;47.684;10.806;2022-10-13T00:03:13;93813.03;;;5.36;100.00
16738;BME280;17906;47.684;10.806;2022-10-13T00:05:40;93804.56;;;5.39;100.00
16738;BME280;17906;47.684;10.806;2022-10-13T00:08:08;93807.91;;;5.41;100.00
16738;BME280;17906;47.684;10.806;2022-10-13T00:10:38;93814.94;;;5.49;100.00
16738;BME280;17906;47.684;10.806;2022-10-13T00:13:06;93823.84;;;5.56;100.00
16738;BME280;17906;47.684;10.806;2022-10-13T00:15:37;93813.53;;;5.66;100.00
16738;BME280;17906;47.684;10.806;2022-10-13T00:18:03;93811.88;;;5.72;100.00
16738;BME280;17906;47.684;10.806;2022-10-13T00:20:31;93826.38;;;5.77;100.00
16738;BME280;17906;47.684;10.806;2022-10-13T00:22:58;93812.72;;;5.79;100.00
16738;BME280;17906;47.684;10.806;2022-10-13T00:25:24;93826.59;;;5.76;100.00
16738;BME280;17906;47.684;10.806;2022-10-13T00:27:52;93811.47;;;5.81;100.00
16738;BME280;17906;47.684;10.806;2022-10-13T00:30:19;93816.25;;;5.86;100.00
16738;BME280;17906;47.684;10.806;2022-10-13T00:32:46;93814.78;;;5.83;100.00
16738;BME280;17906;47.684;10.806;2022-10-13T00:35:13;93807.34;;;5.86;100.00
16738;BME280;17906;47.684;10.806;2022-10-13T00:37:39;93805.28;;;5.88;100.00
16738;BME280;17906;47.684;10.806;2022-10-13T00:40:07;93798.03;;;5.88;100.00
16738;BME280;17906;47.684;10.806;2022-10-13T00:42:34;93801.97;;;5.92;100.00
16738;BME280;17906;47.684;10.806;2022-10-13T00:45:05;93805.69;;;5.91;100.00
16738;BME280;17906;47.684;10.806;2022-10-13T00:47:35;93807.34;;;5.86;100.00
16738;BME280;17906;47.684;10.806;2022-10-13T00:50:06;93806.94;;;5.89;100.00
16738;BME280;17906;47.684;10.806;2022-10-13T00:52:36;93799.66;;;5.82;100.00
16738;BME280;17906;47.684;10.806;2022-10-13T00:55:05;93800.09;;;5.93;100.00
16738;BME280;17906;47.684;10.806;2022-10-13T00:57:33;93796.78;;;6.04;100.00
16738;BME280;17906;47.684;10.806;2022-10-13T01:00:03;93793.75;;;6.07;100.00
16738;BME280;17906;47.684;10.806;2022-10-13T01:02:31;93802.63;;;6.07;100.00
16738;BME280;17906;47.684;10.806;2022-10-13T01:05:02;93797.03;;;6.16;100.00
16738;BME280;17906;47.684;10.806;2022-10-13T01:07:29;93796.84;;;6.17;100.00
16738;BME280;17906;47.684;10.806;2022-10-13T01:09:57;93799.94;;;6.21;100.00
16738;BME280;17906;47.684;10.806;2022-10-13T01:12:34;93799.94;;;6.21;100.00
16738;BME280;17906;47.684;10.806;2022-10-13T01:15:10;93798.69;;;6.30;100.00
16738;BME280;17906;47.684;10.806;2022-10-13T01:17:46;93798.25;;;6.26;100.00
16738;BME280;17906;47.684;10.806;2022-10-13T01:20:33;93799.31;;;6.32;100.00
16738;BME280;17906;47.684;10.806;2022-10-13T01:23:27;93795.38;;;6.21;100.00
16738;BME280;17906;47.684;10.806;2022-10-13T01:26:22;93796.22;;;6.28;100.00
16738;BME280;17906;47.684;10.806;2022-10-13T01:29:10;93792.47;;;6.36;100.00
16738;BME280;17906;47.684;10.806;2022-10-13T01:31:44;93788.31;;;6.33;100.00
16738;BME280;17906;47.684;10.806;2022-10-13T01:34:17;93796.19;;;6.41;100.00
16738;BME280;17906;47.684;10.806;2022-10-13T01:36:51;93789.34;;;6.46;100.00
16738;BME280;17906;47.684;10.806;2022-10-13T01:39:23;93788.91;;;6.49;100.00
16738;BME280;17906;47.684;10.806;2022-10-13T01:41:56;93801.56;;;6.48;100.00
16738;BME280;17906;47.684;10.806;2022-10-13T01:44:30;93794.13;;;6.44;100.00
16738;BME280;17906;47.684;10.806;2022-10-13T01:47:01;93803.00;;;6.37;100.00
16738;BME280;17906;47.684;10.806;2022-10-13T01:49:32;93793.31;;;6.30;100.00
16738;BME280;17906;47.684;10.806;2022-10-13T01:52:03;93799.72;;;6.29;100.00
16738;BME280;17906;47.684;10.806;2022-10-13T01:54:32;93805.50;;;6.26;100.00
16738;BME280;17906;47.684;10.806;2022-10-13T01:56:59;93802.84;;;6.12;100.00
16738;BME280;17906;47.684;10.806;2022-10-13T01:59:28;93802.59;;;6.01;100.00
16738;BME280;17906;47.684;10.806;2022-10-13T02:02:06;93806.31;;;5.93;100.00
16738;BME280;17906;47.684;10.806;2022-10-13T02:04:47;93805.06;;;5.76;100.00
16738;BME280;17906;47.684;10.806;2022-10-13T02:07:20;93809.41;;;5.77;100.00
16738;BME280;17906;47.684;10.806;2022-10-13T02:09:56;93806.72;;;5.83;100.00
16738;BME280;17906;47.684;10.806;2022-10-13T02:12:28;93802.16;;;5.71;100.00
16738;BME280;17906;47.684;10.806;2022-10-13T02:14:57;93811.25;;;5.70;100.00
16738;BME280;17906;47.684;10.806;2022-10-13T02:17:26;93813.13;;;5.63;100.00
16738;BME280;17906;47.684;10.806;2022-10-13T02:19:54;93808.09;;;5.46;100.00
16738;BME280;17906;47.684;10.806;2022-10-13T02:22:26;93802.09;;;5.38;100.00
16738;BME280;17906;47.684;10.806;2022-10-13T02:24:54;93803.94;;;5.37;100.00
16738;BME280;17906;47.684;10.806;2022-10-13T02:27:21;93808.66;;;5.29;100.00
16738;BME280;17906;47.684;10.806;2022-10-13T02:29:50;93807.63;;;5.30;100.00
16738;BME280;17906;47.684;10.806;2022-10-13T02:32:17;93813.22;;;5.21;100.00
16738;BME280;17906;47.684;10.806;2022-10-13T02:34:45;93806.38;;;5.25;100.00
16738;BME280;17906;47.684;10.806;2022-10-13T02:37:12;93816.56;;;5.37;100.00
16738;BME280;17906;47.684;10.806;2022-10-13T02:39:39;93814.06;;;5.35;100.00
16738;BME280;17906;47.684;10.806;2022-10-13T02:42:06;93806.84;;;5.36;100.00
16738;BME280;17906;47.684;10.806;2022-10-13T02:44:34;93809.56;;;5.42;100.00
16738;BME280;17906;47.684;10.806;2022-10-13T02:47:01;93804.19;;;5.49;100.00
16738;BME280;17906;47.684;10.806;2022-10-13T02:49:28;93795.94;;;5.57;100.00
16738;BME280;17906;47.684;10.806;2022-10-13T02:51:56;93795.91;;;5.50;100.00
16738;BME280;17906;47.684;10.806;2022-10-13T02:54:23;93780.19;;;5.61;100.00
16738;BME280;17906;47.684;10.806;2022-10-13T02:56:49;93780.63;;;5.64;100.00
16738;BME280;17906;47.684;10.806;2022-10-13T02:59:16;93786.22;;;5.69;100.00
16738;BME280;17906;47.684;10.806;2022-10-13T03:01:43;93786.66;;;5.79;100.00
16738;BME280;17906;47.684;10.806;2022-10-13T03:04:10;93766.97;;;5.79;100.00
16738;BME280;17906;47.684;10.806;2022-10-13T03:06:37;93762.00;;;5.82;100.00
16738;BME280;17906;47.684;10.806;2022-10-13T03:09:05;93760.34;;;5.81;100.00
16738;BME280;17906;47.684;10.806;2022-10-13T03:11:32;93768.44;;;5.81;100.00
16738;BME280;17906;47.684;10.806;2022-10-13T03:13:59;93754.59;;;5.84;100.00
16738;BME280;17906;47.684;10.806;2022-10-13T03:16:26;93760.56;;;5.80;100.00
16738;BME280;17906;47.684;10.806;2022-10-13T03:18:52;93760.34;;;5.81;100.00
16738;BME280;17906;47.684;10.806;2022-10-13T03:21:20;93761.41;;;5.74;100.00
16738;BME280;17906;47.684;10.806;2022-10-13T03:23:46;93764.69;;;5.82;100.00
16738;BME280;17906;47.684;10.806;2022-10-13T03:26:14;93765.53;;;5.76;100.00
16738;BME280;17906;47.684;10.806;2022-10-13T03:28:41;93760.16;;;5.70;100.00
16738;BME280;17906;47.684;10.806;2022-10-13T03:31:10;93763.88;;;5.69;100.00
16738;BME280;17906;47.684;10.806;2022-10-13T03:33:38;93762.00;;;5.69;100.00
16738;BME280;17906;47.684;10.806;2022-10-13T03:36:05;93760.16;;;5.70;100.00
16738;BME280;17906;47.684;10.806;2022-10-13T03:38:33;93762.41;;;5.73;100.00
16738;BME280;17906;47.684;10.806;2022-10-13T03:41:04;93767.78;;;5.73;100.00
16738;BME280;17906;47.684;10.806;2022-10-13T03:43:32;93764.09;;;5.67;100.00
16738;BME280;17906;47.684;10.806;2022-10-13T03:46:00;93767.59;;;5.54;100.00
16738;BME280;17906;47.684;10.806;2022-10-13T03:48:28;93761.59;;;5.52;100.00
16738;BME280;17906;47.684;10.806;2022-10-13T03:50:55;93764.91;;;5.54;100.00
16738;BME280;17906;47.684;10.806;2022-10-13T03:53:22;93767.59;;;5.54;100.00
16738;BME280;17906;47.684;10.806;2022-10-13T03:55:50;93765.31;;;5.51;100.00
16738;BME280;17906;47.684;10.806;2022-10-13T03:58:17;93769.22;;;5.42;100.00
16738;BME280;17906;47.684;10.806;2022-10-13T04:00:46;93769.63;;;5.39;100.00
16738;BME280;17906;47.684;10.806;2022-10-13T04:03:13;93776.03;;;5.45;100.00
16738;BME280;17906;47.684;10.806;2022-10-13T04:05:39;93774.16;;;5.39;100.00
16738;BME280;17906;47.684;10.806;2022-10-13T04:08:06;93772.31;;;5.46;100.00
16738;BME280;17906;47.684;10.806;2022-10-13T04:10:33;93776.47;;;5.42;100.00
16738;BME280;17906;47.684;10.806;2022-10-13T04:12:59;93776.63;;;5.40;100.00
16738;BME280;17906;47.684;10.806;2022-10-13T04:15:26;93777.91;;;5.44;100.00
16738;BME280;17906;47.684;10.806;2022-10-13T04:17:54;93782.47;;;5.44;100.00
16738;BME280;17906;47.684;10.806;2022-10-13T04:20:21;93772.50;;;5.38;100.00
16738;BME280;17906;47.684;10.806;2022-10-13T04:22:47;93782.03;;;5.34;100.00
16738;BME280;17906;47.684;10.806;2022-10-13T04:25:14;93785.31;;;5.29;100.00
16738;BME280;17906;47.684;10.806;2022-10-13T04:27:41;93794.00;;;5.31;100.00
16738;BME280;17906;47.684;10.806;2022-10-13T04:30:09;93792.56;;;5.35;100.00
16738;BME280;17906;47.684;10.806;2022-10-13T04:32:36;93799.00;;;5.41;100.00
16738;BME280;17906;47.684;10.806;2022-10-13T04:35:05;93802.75;;;5.53;100.00
16738;BME280;17906;47.684;10.806;2022-10-13T04:37:32;93786.63;;;5.60;100.00
16738;BME280;17906;47.684;10.806;2022-10-13T04:39:59;93790.53;;;5.57;100.00
16738;BME280;17906;47.684;10.806;2022-10-13T04:42:26;93789.50;;;5.51;100.00
16738;BME280;17906;47.684;10.806;2022-10-13T04:44:52;93803.38;;;5.55;100.00
16738;BME280;17906;47.684;10.806;2022-10-13T04:47:19;93788.66;;;5.51;100.00
16738;BME280;17906;47.684;10.806;2022-10-13T04:49:46;93798.41;;;5.52;100.00
16738;BME280;17906;47.684;10.806;2022-10-13T04:52:14;93797.78;;;5.57;100.00
16738;BME280;17906;47.684;10.806;2022-10-13T04:54:41;93790.31;;;5.45;100.00
16738;BME280;17906;47.684;10.806;2022-10-13T04:57:08;93794.91;;;5.51;100.00
16738;BME280;17906;47.684;10.806;2022-10-13T04:59:35;93799.25;;;5.52;100.00
16738;BME280;17906;47.684;10.806;2022-10-13T05:02:02;93794.47;;;5.54;100.00
16738;BME280;17906;47.684;10.806;2022-10-13T05:04:28;93795.13;;;5.63;100.00
16738;BME280;17906;47.684;10.806;2022-10-13T05:06:55;93790.97;;;5.61;100.00
16738;BME280;17906;47.684;10.806;2022-10-13T05:09:23;93800.69;;;5.68;100.00
16738;BME280;17906;47.684;10.806;2022-10-13T05:11:50;93801.31;;;5.64;100.00
16738;BME280;17906;47.684;10.806;2022-10-13T05:14:19;93800.91;;;5.67;100.00
16738;BME280;17906;47.684;10.806;2022-10-13T05:16:45;93794.69;;;5.73;100.00
16738;BME280;17906;47.684;10.806;2022-10-13T05:19:13;93792.66;;;5.75;100.00
16738;BME280;17906;47.684;10.806;2022-10-13T05:21:40;93793.47;;;5.82;100.00
16738;BME280;17906;47.684;10.806;2022-10-13T05:24:07;93790.56;;;5.83;100.00
16738;BME280;17906;47.684;10.806;2022-10-13T05:26:39;93802.59;;;5.88;100.00
16738;BME280;17906;47.684;10.806;2022-10-13T05:29:06;93792.84;;;5.93;100.00
16738;BME280;17906;47.684;10.806;2022-10-13T05:31:34;93798.03;;;5.88;100.00
16738;BME280;17906;47.684;10.806;2022-10-13T05:34:02;93806.31;;;5.93;100.00
16738;BME280;17906;47.684;10.806;2022-10-13T05:36:30;93801.97;;;5.86;100.00
16738;BME280;17906;47.684;10.806;2022-10-13T05:38:58;93789.34;;;5.86;100.00
16738;BME280;17906;47.684;10.806;2022-10-13T05:41:26;93787.88;;;5.83;100.00
16738;BME280;17906;47.684;10.806;2022-10-13T05:43:56;93795.13;;;5.90;100.00
16738;BME280;17906;47.684;10.806;2022-10-13T05:46:24;93785.81;;;5.92;100.00
16738;BME280;17906;47.684;10.806;2022-10-13T05:48:50;93777.53;;;5.94;100.00
16738;BME280;17906;47.684;10.806;2022-10-13T05:51:21;93788.09;;;5.89;100.00
16738;BME280;17906;47.684;10.806;2022-10-13T05:53:52;93782.50;;;5.90;100.00
16738;BME280;17906;47.684;10.806;2022-10-13T05:56:22;93788.94;;;5.89;100.00
16738;BME280;17906;47.684;10.806;2022-10-13T05:58:54;93778.38;;;6.01;100.00
16738;BME280;17906;47.684;10.806;2022-10-13T06:01:25;93776.94;;;5.98;100.00
16738;BME280;17906;47.684;10.806;2022-10-13T06:03:55;93779.81;;;6.03;100.00
16738;BME280;17906;47.684;10.806;2022-10-13T06:06:24;93778.81;;;6.11;100.00
16738;BME280;17906;47.684;10.806;2022-10-13T06:08:51;93782.94;;;6.13;100.00
16738;BME280;17906;47.684;10.806;2022-10-13T06:11:18;93783.78;;;6.21;100.00
16738;BME280;17906;47.684;10.806;2022-10-13T06:13:44;93782.13;;;6.20;100.00
16738;BME280;17906;47.684;10.806;2022-10-13T06:16:14;93780.47;;;6.25;100.00
16738;BME280;17906;47.684;10.806;2022-10-13T06:18:40;93773.63;;;6.23;100.00
16738;BME280;17906;47.684;10.806;2022-10-13T06:21:07;93779.84;;;6.30;100.00
16738;BME280;17906;47.684;10.806;2022-10-13T06:23:34;93775.91;;;6.26;100.00
16738;BME280;17906;47.684;10.806;2022-10-13T06:26:01;93788.97;;;6.22;100.00
16738;BME280;17906;47.684;10.806;2022-10-13T06:28:28;93776.53;;;6.21;100.00
16738;BME280;17906;47.684;10.806;2022-10-13T06:30:55;93773.84;;;6.15;100.00
16738;BME280;17906;47.684;10.806;2022-10-13T06:33:23;93779.22;;;6.15;100.00
16738;BME280;17906;47.684;10.806;2022-10-13T06:35:50;93777.56;;;6.13;100.00
16738;BME280;17906;47.684;10.806;2022-10-13T06:38:17;93776.56;;;6.08;100.00
16738;BME280;17906;47.684;10.806;2022-10-13T06:40:44;93776.13;;;6.04;100.00
16738;BME280;17906;47.684;10.806;2022-10-13T06:43:10;93776.72;;;5.93;100.00
16738;BME280;17906;47.684;10.806;2022-10-13T06:45:37;93773.59;;;6.03;100.00
16738;BME280;17906;47.684;10.806;2022-10-13T06:48:04;93775.47;;;6.02;100.00
16738;BME280;17906;47.684;10.806;2022-10-13T06:50:32;93767.84;;;6.12;100.00
16738;BME280;17906;47.684;10.806;2022-10-13T06:52:59;93768.47;;;6.28;100.00
16738;BME280;17906;47.684;10.806;2022-10-13T06:55:26;93766.38;;;6.23;100.00
16738;BME280;17906;47.684;10.806;2022-10-13T06:57:52;93769.94;;;6.17;100.00
16738;BME280;17906;47.684;10.806;2022-10-13T07:00:20;93769.09;;;6.10;100.00
16738;BME280;17906;47.684;10.806;2022-10-13T07:02:48;93762.25;;;6.21;100.00
16738;BME280;17906;47.684;10.806;2022-10-13T07:05:15;93761.03;;;6.17;100.00
16738;BME280;17906;47.684;10.806;2022-10-13T07:07:44;93760.16;;;6.23;100.00
16738;BME280;17906;47.684;10.806;2022-10-13T07:10:11;93776.75;;;6.13;100.00
16738;BME280;17906;47.684;10.806;2022-10-13T07:12:38;93759.34;;;6.16;100.00
16738;BME280;17906;47.684;10.806;2022-10-13T07:15:06;93756.25;;;6.19;100.00
16738;BME280;17906;47.684;10.806;2022-10-13T07:17:32;93762.88;;;6.23;100.00
16738;BME280;17906;47.684;10.806;2022-10-13T07:19:59;93756.44;;;6.30;100.00
16738;BME280;17906;47.684;10.806;2022-10-13T07:22:27;93760.56;;;6.33;100.00
16738;BME280;17906;47.684;10.806;2022-10-13T07:24:55;93759.72;;;6.52;100.00
16738;BME280;17906;47.684;10.806;2022-10-13T07:27:22;93754.53;;;6.51;100.00
16738;BME280;17906;47.684;10.806;2022-10-13T07:29:49;93757.25;;;6.51;100.00
16738;BME280;17906;47.684;10.806;2022-10-13T07:32:16;93758.47;;;6.55;100.00
16738;BME280;17906;47.684;10.806;2022-10-13T07:34:42;93753.06;;;6.48;100.00
16738;BME280;17906;47.684;10.806;2022-10-13T07:37:09;93746.22;;;6.59;100.00
16738;BME280;17906;47.684;10.806;2022-10-13T07:39:36;93738.97;;;6.59;100.00
16738;BME280;17906;47.684;10.806;2022-10-13T07:42:04;93745.78;;;6.68;100.00
16738;BME280;17906;47.684;10.806;2022-10-13T07:44:31;93745.56;;;6.70;100.00
16738;BME280;17906;47.684;10.806;2022-10-13T07:46:57;93736.63;;;6.83;100.00
16738;BME280;17906;47.684;10.806;2022-10-13T07:49:24;93733.06;;;6.89;100.00
16738;BME280;17906;47.684;10.806;2022-10-13T07:51:51;93738.44;;;6.95;100.00
16738;BME280;17906;47.684;10.806;2022-10-13T07:54:18;93741.31;;;7.00;100.00
16738;BME280;17906;47.684;10.806;2022-10-13T07:56:44;93744.59;;;7.03;100.00
16738;BME280;17906;47.684;10.806;2022-10-13T07:59:13;93746.69;;;7.00;100.00
16738;BME280;17906;47.684;10.806;2022-10-13T08:01:39;93726.50;;;7.16;100.00
16738;BME280;17906;47.684;10.806;2022-10-13T08:04:06;93732.81;;;7.35;100.00
16738;BME280;17906;47.684;10.806;2022-10-13T08:06:33;93730.69;;;7.44;100.00
16738;BME280;17906;47.684;10.806;2022-10-13T08:09:00;93729.19;;;7.54;100.00
16738;BME280;17906;47.684;10.806;2022-10-13T08:11:28;93740.63;;;7.50;100.00
16738;BME280;17906;47.684;10.806;2022-10-13T08:13:56;93743.19;;;7.38;100.00
16738;BME280;17906;47.684;10.806;2022-10-13T08:16:27;93742.09;;;7.46;100.00
16738;BME280;17906;47.684;10.806;2022-10-13T08:18:55;93760.38;;;7.44;100.00
16738;BME280;17906;47.684;10.806;2022-10-13T08:21:23;93756.25;;;7.41;100.00
16738;BME280;17906;47.684;10.806;2022-10-13T08:23:50;93740.66;;;7.43;100.00
16738;BME280;17906;47.684;10.806;2022-10-13T08:26:19;93744.78;;;7.46;100.00
16738;BME280;17906;47.684;10.806;2022-10-13T08:28:47;93756.97;;;7.55;100.00
16738;BME280;17906;47.684;10.806;2022-10-13T08:31:14;93752.38;;;7.62;100.00
16738;BME280;17906;47.684;10.806;2022-10-13T08:33:43;93756.34;;;7.60;100.00
16738;BME280;17906;47.684;10.806;2022-10-13T08:36:11;93762.25;;;7.43;100.00
16738;BME280;17906;47.684;10.806;2022-10-13T08:38:38;93761.03;;;7.39;100.00
16738;BME280;17906;47.684;10.806;2022-10-13T08:41:13;93757.19;;;7.60;100.00
16738;BME280;17906;47.684;10.806;2022-10-13T08:43:47;93755.06;;;7.69;100.00
16738;BME280;17906;47.684;10.806;2022-10-13T08:46:18;93750.53;;;7.94;99.80
16738;BME280;17906;47.684;10.806;2022-10-13T08:48:48;93751.69;;;8.05;98.04
16738;BME280;17906;47.684;10.806;2022-10-13T08:51:15;93740.50;;;8.26;97.06
16738;BME280;17906;47.684;10.806;2022-10-13T08:53:43;93735.66;;;8.53;96.89
16738;BME280;17906;47.684;10.806;2022-10-13T08:56:16;93729.75;;;8.99;93.45
16738;BME280;17906;47.684;10.806;2022-10-13T08:58:43;93724.69;;;9.81;89.07
16738;BME280;17906;47.684;10.806;2022-10-13T09:01:14;93721.69;;;10.13;85.98
16738;BME280;17906;47.684;10.806;2022-10-13T09:03:50;93727.94;;;10.48;85.04
16738;BME280;17906;47.684;10.806;2022-10-13T09:06:20;93721.31;;;11.03;82.89
16738;BME280;17906;47.684;10.806;2022-10-13T09:08:54;93715.81;;;11.38;78.56
16738;BME280;17906;47.684;10.806;2022-10-13T09:11:24;93713.31;;;11.37;77.85
16738;BME280;17906;47.684;10.806;2022-10-13T09:13:53;93723.91;;;11.10;79.64
16738;BME280;17906;47.684;10.806;2022-10-13T09:16:28;93715.47;;;10.94;79.11
16738;BME280;17906;47.684;10.806;2022-10-13T09:19:12;93710.53;;;11.20;79.66
16738;BME280;17906;47.684;10.806;2022-10-13T09:21:39;93700.69;;;11.59;79.16
16738;BME280;17906;47.684;10.806;2022-10-13T09:24:11;93707.59;;;11.78;77.76
16738;BME280;17906;47.684;10.806;2022-10-13T09:26:39;93696.94;;;12.05;76.17
16738;BME280;17906;47.684;10.806;2022-10-13T09:29:07;93697.63;;;12.85;72.03
16738;BME280;17906;47.684;10.806;2022-10-13T09:31:34;93705.91;;;12.56;71.66
16738;BME280;17906;47.684;10.806;2022-10-13T09:34:13;93697.78;;;12.39;74.14
16738;BME280;17906;47.684;10.806;2022-10-13T09:36:55;93694.16;;;13.11;73.13
16738;BME280;17906;47.684;10.806;2022-10-13T09:39:22;93682.91;;;13.02;71.69
16738;BME280;17906;47.684;10.806;2022-10-13T09:41:48;93685.53;;;12.97;71.46
16738;BME280;17906;47.684;10.806;2022-10-13T09:44:17;93685.88;;;13.01;72.83
16738;BME280;17906;47.684;10.806;2022-10-13T09:46:54;93687.19;;;13.20;70.69
16738;BME280;17906;47.684;10.806;2022-10-13T09:49:36;93674.91;;;13.61;69.55
16738;BME280;17906;47.684;10.806;2022-10-13T09:52:05;93677.34;;;14.17;70.76
16738;BME280;17906;47.684;10.806;2022-10-13T09:54:41;93677.09;;;14.50;66.04
16738;BME280;17906;47.684;10.806;2022-10-13T09:57:14;93675.03;;;14.68;67.36
16738;BME280;17906;47.684;10.806;2022-10-13T09:59:45;93675.84;;;15.16;67.00
16738;BME280;17906;47.684;10.806;2022-10-13T10:02:19;93669.28;;;15.17;66.04
16738;BME280;17906;47.684;10.806;2022-10-13T10:04:50;93672.19;;;15.47;63.77
16738;BME280;17906;47.684;10.806;2022-10-13T10:07:21;93663.47;;;14.98;65.79
16738;BME280;17906;47.684;10.806;2022-10-13T10:09:55;93677.94;;;14.98;64.84
16738;BME280;17906;47.684;10.806;2022-10-13T10:12:25;93670.94;;;14.33;67.19
16738;BME280;17906;47.684;10.806;2022-10-13T10:14:54;93667.16;;;14.07;70.43
16738;BME280;17906;47.684;10.806;2022-10-13T10:17:27;93662.88;;;14.16;69.89
16738;BME280;17906;47.684;10.806;2022-10-13T10:20:08;93672.63;;;14.39;69.50
16738;BME280;17906;47.684;10.806;2022-10-13T10:22:46;93676.69;;;14.74;67.69
16738;BME280;17906;47.684;10.806;2022-10-13T10:25:24;93672.44;;;14.93;67.59
16738;BME280;17906;47.684;10.806;2022-10-13T10:28:12;93677.41;;;14.54;68.42
16738;BME280;17906;47.684;10.806;2022-10-13T10:30:47;93673.59;;;15.02;67.19
16738;BME280;17906;47.684;10.806;2022-10-13T10:33:19;93678.50;;;14.58;68.49
16738;BME280;17906;47.684;10.806;2022-10-13T10:35:53;93676.06;;;13.98;70.41
16738;BME280;17906;47.684;10.806;2022-10-13T10:38:31;93671.75;;;13.75;71.81
16738;BME280;17906;47.684;10.806;2022-10-13T10:41:05;93666.84;;;13.45;73.46
16738;BME280;17906;47.684;10.806;2022-10-13T10:43:43;93671.38;;;13.39;73.18
16738;BME280;17906;47.684;10.806;2022-10-13T10:46:15;93661.59;;;13.21;73.96
16738;BME280;17906;47.684;10.806;2022-10-13T10:48:44;93650.16;;;13.41;75.19
16738;BME280;17906;47.684;10.806;2022-10-13T10:51:13;93653.94;;;13.62;72.13
16738;BME280;17906;47.684;10.806;2022-10-13T10:53:49;93639.19;;;13.58;74.65
16738;BME280;17906;47.684;10.806;2022-10-13T10:56:25;93644.47;;;13.70;72.76
16738;BME280;17906;47.684;10.806;2022-10-13T10:59:04;93642.28;;;13.67;71.35
16738;BME280;17906;47.684;10.806;2022-10-13T11:01:38;93645.22;;;13.65;72.99
16738;BME280;17906;47.684;10.806;2022-10-13T11:04:29;93639.53;;;13.93;73.14
16738;BME280;17906;47.684;10.806;2022-10-13T11:07:01;93641.59;;;14.13;72.52
16738;BME280;17906;47.684;10.806;2022-10-13T11:10:16;93639.22;;;14.22;72.80
16738;BME280;17906;47.684;10.806;2022-10-13T11:12:48;93624.31;;;14.35;71.70
16738;BME280;17906;47.684;10.806;2022-10-13T11:15:41;93634.50;;;14.44;70.78
16738;BME280;17906;47.684;10.806;2022-10-13T11:21:12;93624.75;;;14.59;69.54
16738;BME280;17906;47.684;10.806;2022-10-13T11:23:44;93620.59;;;14.46;71.03
16738;BME280;17906;47.684;10.806;2022-10-13T11:26:30;93621.50;;;14.25;71.31
16738;BME280;17906;47.684;10.806;2022-10-13T11:28:58;93617.50;;;14.37;71.59
16738;BME280;17906;47.684;10.806;2022-10-13T11:31:28;93615.22;;;14.61;70.79
16738;BME280;17906;47.684;10.806;2022-10-13T11:33:57;93615.88;;;14.78;69.57
16738;BME280;17906;47.684;10.806;2022-10-13T11:36:30;93612.94;;;14.95;68.23
16738;BME280;17906;47.684;10.806;2022-10-13T11:39:04;93607.19;;;14.87;68.33
16738;BME280;17906;47.684;10.806;2022-10-13T11:41:40;93611.56;;;14.93;68.32
16738;BME280;17906;47.684;10.806;2022-10-13T11:44:15;93610.47;;;14.89;66.93
16738;BME280;17906;47.684;10.806;2022-10-13T11:46:56;93604.69;;;14.80;67.58
16738;BME280;17906;47.684;10.806;2022-10-13T11:49:55;93609.09;;;14.86;68.07
16738;BME280;17906;47.684;10.806;2022-10-13T11:52:45;93592.91;;;14.69;68.45
16738;BME280;17906;47.684;10.806;2022-10-13T11:55:32;93596.88;;;14.51;71.21
16738;BME280;17906;47.684;10.806;2022-10-13T11:58:11;93596.31;;;14.49;70.80
16738;BME280;17906;47.684;10.806;2022-10-13T12:00:49;93598.41;;;14.37;72.95
16738;BME280;17906;47.684;10.806;2022-10-13T12:03:19;93581.53;;;14.40;72.04
16738;BME280;17906;47.684;10.806;2022-10-13T12:05:47;93585.09;;;14.41;71.62
16738;BME280;17906;47.684;10.806;2022-10-13T12:08:14;93577.44;;;14.38;70.38
16738;BME280;17906;47.684;10.806;2022-10-13T12:10:43;93577.16;;;14.39;70.62
16738;BME280;17906;47.684;10.806;2022-10-13T12:13:18;93569.50;;;14.36;71.76
16738;BME280;17906;47.684;10.806;2022-10-13T12:15:46;93572.88;;;14.11;70.31
16738;BME280;17906;47.684;10.806;2022-10-13T12:18:21;93565.88;;;14.26;70.59
16738;BME280;17906;47.684;10.806;2022-10-13T12:20:52;93569.97;;;14.23;71.37
16738;BME280;17906;47.684;10.806;2022-10-13T12:23:19;93561.34;;;14.41;72.16
16738;BME280;17906;47.684;10.806;2022-10-13T12:25:49;93560.88;;;14.49;70.93
16738;BME280;17906;47.684;10.806;2022-10-13T12:28:22;93560.31;;;14.47;71.40
16738;BME280;17906;47.684;10.806;2022-10-13T12:30:51;93555.41;;;14.44;71.63
16738;BME280;17906;47.684;10.806;2022-10-13T12:33:22;93555.56;;;14.33;70.97
16738;BME280;17906;47.684;10.806;2022-10-13T12:35:51;93545.56;;;14.43;72.08
16738;BME280;17906;47.684;10.806;2022-10-13T12:38:19;93552.13;;;14.47;70.49
16738;BME280;17906;47.684;10.806;2022-10-13T12:40:50;93546.13;;;14.50;71.50
16738;BME280;17906;47.684;10.806;2022-10-13T12:43:19;93547.66;;;14.36;71.10
16738;BME280;17906;47.684;10.806;2022-10-13T12:45:48;93544.00;;;14.53;70.83
16738;BME280;17906;47.684;10.806;2022-10-13T12:48:31;93536.03;;;14.51;70.10
16738;BME280;17906;47.684;10.806;2022-10-13T12:51:12;93534.94;;;14.52;70.35
16738;BME280;17906;47.684;10.806;2022-10-13T12:53:41;93526.75;;;14.47;70.22
16738;BME280;17906;47.684;10.806;2022-10-13T12:56:24;93529.66;;;14.35;71.61
16738;BME280;17906;47.684;10.806;2022-10-13T12:58:52;93529.25;;;14.11;74.41
16738;BME280;17906;47.684;10.806;2022-10-13T13:01:27;93527.75;;;13.88;76.47
16738;BME280;17906;47.684;10.806;2022-10-13T13:03:57;93534.97;;;14.10;74.77
16738;BME280;17906;47.684;10.806;2022-10-13T13:06:34;93521.84;;;14.07;73.50
16738;BME280;17906;47.684;10.806;2022-10-13T13:09:18;93514.53;;;14.12;76.29